Time;durP1;ratioP1;P1;durP2;ratioP2;P2;SDS_P1;SDS_P2;PMS_P1;PMS_P2;Temp;Humidity;BMP_temperature;BMP_pressure;BME280_temperature;BME280_humidity;BME280_pressure;Samples;Min_cycle;Max_cycle;Signal;HPM_P1;HPM_P2
2022/03/03 00:00:33;;;;;;;19.73;8.87;;;0.40;99.90;;;;;;4175917;28;20898;-71
2022/03/03 00:02:34;;;;;;;13.67;7.17;;;0.40;99.90;;;;;;4157506;28;20276;-55
2022/03/03 00:04:36;;;;;;;17.00;7.87;;;0.40;99.90;;;;;;4158843;28;20270;-81
2022/03/03 00:06:37;;;;;;;16.47;8.30;;;0.30;99.90;;;;;;4176201;28;20319;-94
2022/03/03 00:08:38;;;;;;;16.73;8.90;;;0.30;99.90;;;;;;4177131;28;20278;-70
2022/03/03 00:10:39;;;;;;;10.13;5.67;;;0.40;99.90;;;;;;4175466;28;20619;-60
2022/03/03 00:12:41;;;;;;;19.00;8.90;;;0.30;99.90;;;;;;4176943;28;20266;-68
2022/03/03 00:14:42;;;;;;;13.97;6.60;;;0.30;99.90;;;;;;4175019;28;20352;-55
2022/03/03 00:16:43;;;;;;;16.77;7.73;;;0.30;99.90;;;;;;4175824;28;20301;-50
2022/03/03 00:18:44;;;;;;;15.43;7.77;;;0.30;99.90;;;;;;4174722;28;20336;-65
2022/03/03 00:20:45;;;;;;;17.63;8.20;;;0.30;99.90;;;;;;4176108;28;20269;-50
2022/03/03 00:22:46;;;;;;;20.57;9.77;;;0.30;99.90;;;;;;4176327;28;20254;-70
2022/03/03 00:24:49;;;;;;;30.83;13.37;;;0.30;99.90;;;;;;4178907;28;20266;-50
2022/03/03 00:26:50;;;;;;;29.73;12.77;;;0.30;99.90;;;;;;4177894;28;20262;-76
2022/03/03 00:28:51;;;;;;;17.60;8.83;;;0.40;99.90;;;;;;4177416;28;20344;-74
2022/03/03 00:30:53;;;;;;;19.60;9.13;;;0.30;99.90;;;;;;4175967;28;20282;-59
2022/03/03 00:32:54;;;;;;;18.87;7.63;;;0.30;99.90;;;;;;4176718;28;20700;-62
2022/03/03 00:34:55;;;;;;;12.40;7.77;;;0.30;99.90;;;;;;4176454;28;20340;-61
2022/03/03 00:36:56;;;;;;;12.27;7.57;;;0.30;99.90;;;;;;4174884;28;20266;-78
2022/03/03 00:38:57;;;;;;;10.30;6.30;;;0.30;99.90;;;;;;4176738;28;20250;-71
2022/03/03 00:40:58;;;;;;;11.70;6.07;;;0.30;99.90;;;;;;4175284;28;20683;-82
2022/03/03 00:42:59;;;;;;;10.30;5.00;;;0.20;99.90;;;;;;4167462;28;20267;-58
2022/03/03 00:45:01;;;;;;;12.77;6.60;;;0.20;99.90;;;;;;4159330;28;20317;-56
2022/03/03 00:47:02;;;;;;;14.17;6.07;;;0.20;99.90;;;;;;4159305;28;20372;-49
2022/03/03 00:49:04;;;;;;;12.23;6.47;;;0.20;99.90;;;;;;4157808;28;20275;-51
2022/03/03 00:51:06;;;;;;;13.30;6.77;;;0.20;99.90;;;;;;4161424;28;20289;-67
2022/03/03 00:53:08;;;;;;;11.57;6.97;;;0.10;99.90;;;;;;4174238;28;20262;-59
2022/03/03 00:55:09;;;;;;;14.27;7.17;;;0.20;99.90;;;;;;4157003;28;20291;-63
2022/03/03 00:57:10;;;;;;;17.73;9.37;;;0.10;99.90;;;;;;4174631;28;20312;-70
2022/03/03 00:59:11;;;;;;;18.37;8.03;;;0.10;99.90;;;;;;4176348;28;20262;-61
2022/03/03 01:01:12;;;;;;;21.67;7.07;;;0.10;99.90;;;;;;4174392;28;20303;-60
2022/03/03 01:03:14;;;;;;;14.90;7.40;;;0.10;99.90;;;;;;4175734;28;20362;-48
2022/03/03 01:05:15;;;;;;;10.10;6.00;;;0.00;99.90;;;;;;4175260;28;20258;-90
2022/03/03 01:07:17;;;;;;;18.13;8.30;;;-0.10;99.90;;;;;;4175221;28;20285;-63
2022/03/03 01:09:18;;;;;;;12.37;6.37;;;-0.10;99.90;;;;;;4175965;28;20661;-52
2022/03/03 01:11:19;;;;;;;16.07;7.53;;;-0.10;99.90;;;;;;4174299;28;20287;-57
2022/03/03 01:13:22;;;;;;;14.63;6.77;;;-0.20;99.90;;;;;;4175122;28;20258;-53
2022/03/03 01:15:23;;;;;;;13.17;5.93;;;-0.20;99.90;;;;;;4174797;28;20313;-54
2022/03/03 01:17:24;;;;;;;14.47;7.33;;;-0.20;99.90;;;;;;4176436;28;20269;-77
2022/03/03 01:19:25;;;;;;;13.63;6.93;;;-0.30;99.90;;;;;;4175377;28;20328;-78
2022/03/03 01:21:26;;;;;;;15.57;7.40;;;-0.30;99.90;;;;;;4174865;28;20762;-45
2022/03/03 01:23:27;;;;;;;13.03;6.80;;;-0.30;99.90;;;;;;4175019;28;21113;-64
2022/03/03 01:25:28;;;;;;;15.03;7.93;;;-0.30;99.90;;;;;;4175947;28;20742;-51
2022/03/03 01:27:32;;;;;;;13.87;7.37;;;-0.30;99.90;;;;;;4174589;28;20304;-52
2022/03/03 01:29:34;;;;;;;13.60;7.00;;;-0.30;99.90;;;;;;4157288;28;20333;-91
2022/03/03 01:31:35;;;;;;;15.53;8.40;;;-0.30;99.90;;;;;;4173911;28;20258;-85
2022/03/03 01:33:36;;;;;;;11.33;6.23;;;-0.30;99.90;;;;;;4175183;28;20379;-42
2022/03/03 01:35:38;;;;;;;13.00;6.73;;;-0.30;99.90;;;;;;4155573;28;20287;-55
2022/03/03 01:37:39;;;;;;;14.50;6.83;;;-0.30;99.90;;;;;;4171840;28;20723;-67
2022/03/03 01:39:40;;;;;;;15.07;6.80;;;-0.30;99.90;;;;;;4166503;28;20259;-89
2022/03/03 01:41:42;;;;;;;13.20;6.43;;;-0.30;99.90;;;;;;4164630;28;20254;-46
2022/03/03 01:43:43;;;;;;;12.63;7.27;;;-0.30;99.90;;;;;;4174520;28;20274;-51
2022/03/03 01:45:45;;;;;;;14.00;7.60;;;-0.30;99.90;;;;;;4168379;28;20262;-56
2022/03/03 01:47:46;;;;;;;13.37;6.13;;;-0.30;99.90;;;;;;4158637;28;20279;-64
2022/03/03 01:49:48;;;;;;;12.40;6.67;;;-0.20;99.90;;;;;;4173629;28;20273;-41
2022/03/03 01:51:50;;;;;;;13.23;7.30;;;-0.20;99.90;;;;;;4178739;28;20266;-75
2022/03/03 01:53:51;;;;;;;14.40;8.53;;;-0.30;99.90;;;;;;4177092;28;20274;-69
2022/03/03 01:55:53;;;;;;;15.27;6.57;;;-0.20;99.90;;;;;;4178826;28;20824;-66
2022/03/03 01:57:55;;;;;;;13.87;7.23;;;-0.30;99.90;;;;;;4177019;28;21443;-76
2022/03/03 01:59:56;;;;;;;11.07;6.83;;;-0.30;99.90;;;;;;4178571;28;20741;-56
2022/03/03 02:01:58;;;;;;;12.33;6.50;;;-0.30;99.90;;;;;;4177016;28;20702;-74
2022/03/03 02:03:59;;;;;;;13.70;6.30;;;-0.30;99.90;;;;;;4178488;28;20262;-71
2022/03/03 02:06:00;;;;;;;10.73;5.70;;;-0.30;99.90;;;;;;4177390;28;20266;-68
2022/03/03 02:08:02;;;;;;;13.17;7.00;;;-0.30;99.90;;;;;;4177962;28;20262;-65
2022/03/03 02:10:04;;;;;;;11.10;5.53;;;-0.30;99.90;;;;;;4178762;28;20315;-93
2022/03/03 02:12:07;;;;;;;11.27;5.63;;;-0.30;99.90;;;;;;4176672;28;20278;-56
2022/03/03 02:14:08;;;;;;;13.40;7.03;;;-0.40;99.90;;;;;;4178428;28;20263;-48
2022/03/03 02:16:09;;;;;;;11.60;6.03;;;-0.40;99.90;;;;;;4177462;28;20336;-60
2022/03/03 02:18:10;;;;;;;9.70;5.47;;;-0.40;99.90;;;;;;4178748;28;20315;-68
2022/03/03 02:20:19;;;;;;;13.83;5.80;;;-0.40;99.90;;;;;;4176445;28;20677;-87
2022/03/03 02:22:21;;;;;;;11.07;5.53;;;-0.40;99.90;;;;;;4160530;28;20295;-73
2022/03/03 02:24:22;;;;;;;14.43;6.03;;;-0.50;99.90;;;;;;4159408;28;20279;-65
2022/03/03 02:26:24;;;;;;;11.33;6.13;;;-0.50;99.90;;;;;;4179967;28;20269;-66
2022/03/03 02:28:25;;;;;;;11.90;5.90;;;-0.50;99.90;;;;;;4175562;28;20282;-58
2022/03/03 02:30:26;;;;;;;14.97;6.73;;;-0.60;99.90;;;;;;4159575;28;20850;-68
2022/03/03 02:32:27;;;;;;;13.40;6.37;;;-0.60;99.90;;;;;;4175771;28;20776;-52
2022/03/03 02:34:35;;;;;;;16.03;6.57;;;-0.70;99.90;;;;;;4176688;28;20327;-70
2022/03/03 02:36:36;;;;;;;15.77;6.23;;;-0.60;99.90;;;;;;4175841;28;20286;-64
2022/03/03 02:38:37;;;;;;;10.87;5.57;;;-0.70;99.90;;;;;;4175682;28;20314;-47
2022/03/03 02:40:38;;;;;;;9.67;5.30;;;-0.70;99.90;;;;;;4176573;28;20304;-50
2022/03/03 02:42:39;;;;;;;11.43;5.67;;;-0.80;99.90;;;;;;4175306;28;20262;-43
2022/03/03 02:44:41;;;;;;;11.17;5.97;;;-0.80;99.90;;;;;;4166347;28;20856;-63
2022/03/03 02:46:42;;;;;;;12.10;5.90;;;-0.80;99.90;;;;;;4143717;28;20279;-68
2022/03/03 02:48:43;;;;;;;14.23;6.00;;;-0.80;99.90;;;;;;4144071;28;20263;-68
2022/03/03 02:50:44;;;;;;;12.60;6.70;;;-0.80;99.90;;;;;;4156570;28;20321;-55
2022/03/03 02:52:46;;;;;;;14.87;6.27;;;-0.90;99.90;;;;;;4160939;28;20324;-70
2022/03/03 02:54:47;;;;;;;16.67;6.30;;;-0.90;99.90;;;;;;4160175;28;20768;-92
2022/03/03 02:59:08;;;;;;;12.17;5.90;;;-0.90;99.90;;;;;;4159806;28;20317;-48
2022/03/03 03:01:09;;;;;;;15.27;6.80;;;-1.00;99.90;;;;;;4159228;28;20630;-83
2022/03/03 03:03:11;;;;;;;12.20;5.97;;;-1.00;99.90;;;;;;4159724;28;20313;-84
2022/03/03 03:05:12;;;;;;;10.90;5.87;;;-1.00;99.90;;;;;;4159559;28;20337;-83
2022/03/03 03:07:13;;;;;;;15.20;6.63;;;-1.00;99.90;;;;;;4159799;28;20330;-85
2022/03/03 03:09:14;;;;;;;14.97;6.47;;;-1.10;99.90;;;;;;4160589;28;20352;-46
2022/03/03 03:11:15;;;;;;;12.73;5.97;;;-1.10;99.90;;;;;;4159683;28;20694;-57
2022/03/03 03:13:17;;;;;;;15.47;7.20;;;-1.10;99.90;;;;;;4159528;28;20301;-71
2022/03/03 03:15:18;;;;;;;10.57;6.13;;;-1.20;99.90;;;;;;4158891;28;20372;-50
2022/03/03 03:17:19;;;;;;;12.67;6.10;;;-1.10;99.90;;;;;;4158741;28;20274;-53
2022/03/03 03:19:21;;;;;;;11.23;6.07;;;-1.20;99.90;;;;;;4159992;28;20266;-67
2022/03/03 03:21:22;;;;;;;15.10;6.53;;;-1.20;99.90;;;;;;4158395;28;20270;-66
2022/03/03 03:23:23;;;;;;;14.83;6.47;;;-1.20;99.90;;;;;;4160018;28;20278;-58
2022/03/03 03:25:24;;;;;;;14.77;6.13;;;-1.30;99.90;;;;;;4158210;28;21113;-57
2022/03/03 03:27:25;;;;;;;12.80;6.00;;;-1.30;99.90;;;;;;4157977;28;20271;-79
2022/03/03 03:29:26;;;;;;;13.50;7.13;;;-1.30;99.90;;;;;;4159614;28;20821;-86
2022/03/03 03:31:28;;;;;;;20.00;6.97;;;-1.30;99.90;;;;;;4160268;28;20336;-76
2022/03/03 03:33:29;;;;;;;13.83;6.73;;;-1.30;99.90;;;;;;4158809;28;20278;-56
2022/03/03 03:35:30;;;;;;;16.03;6.27;;;-1.30;99.90;;;;;;4159368;28;21145;-60
2022/03/03 03:37:32;;;;;;;14.43;6.57;;;-1.40;99.90;;;;;;4157915;28;20348;-71
2022/03/03 03:39:33;;;;;;;11.00;6.33;;;-1.30;99.90;;;;;;4159509;28;20301;-68
2022/03/03 03:41:34;;;;;;;15.93;8.30;;;-1.30;99.90;;;;;;4159686;28;20356;-57
2022/03/03 03:43:35;;;;;;;13.87;7.33;;;-1.30;99.90;;;;;;4160413;28;20313;-67
2022/03/03 03:45:36;;;;;;;14.73;7.37;;;-1.40;99.90;;;;;;4170226;28;20286;-72
2022/03/03 03:47:39;;;;;;;13.63;6.90;;;-1.40;99.90;;;;;;4164000;28;20278;-67
2022/03/03 03:49:40;;;;;;;11.30;6.00;;;-1.40;99.90;;;;;;4178089;28;20717;-66
2022/03/03 03:51:41;;;;;;;14.40;6.33;;;-1.40;99.90;;;;;;4181730;28;20332;-53
2022/03/03 03:53:42;;;;;;;14.53;6.90;;;-1.40;99.90;;;;;;4183657;28;20339;-51
2022/03/03 03:55:43;;;;;;;16.93;8.03;;;-1.50;99.90;;;;;;4180121;28;20808;-52
2022/03/03 03:57:44;;;;;;;20.50;8.77;;;-1.40;99.90;;;;;;4161509;28;20352;-65
2022/03/03 03:59:46;;;;;;;16.13;8.20;;;-1.50;99.90;;;;;;4174452;28;20839;-48
2022/03/03 04:01:48;;;;;;;20.43;7.73;;;-1.40;99.90;;;;;;4176385;28;20274;-58
2022/03/03 04:03:50;;;;;;;16.90;6.77;;;-1.40;99.90;;;;;;4179145;28;20319;-59
2022/03/03 04:05:51;;;;;;;15.57;7.87;;;-1.40;99.90;;;;;;4175817;28;20290;-72
2022/03/03 04:07:52;;;;;;;14.73;7.10;;;-1.40;99.90;;;;;;4170529;28;20239;-87
2022/03/03 04:09:54;;;;;;;18.43;8.20;;;-1.40;99.90;;;;;;4165356;28;20344;-70
2022/03/03 04:11:55;;;;;;;15.20;7.73;;;-1.40;99.90;;;;;;4174697;28;20355;-65
2022/03/03 04:13:56;;;;;;;14.43;6.87;;;-1.40;99.90;;;;;;4183658;23;20309;-44
2022/03/03 04:15:58;;;;;;;15.27;7.70;;;-1.40;99.90;;;;;;4166651;28;20291;-79
2022/03/03 04:17:59;;;;;;;12.87;6.93;;;-1.40;99.90;;;;;;4160139;28;20279;-44
2022/03/03 04:20:00;;;;;;;13.73;7.00;;;-1.40;99.90;;;;;;4149187;28;20283;-69
2022/03/03 04:22:02;;;;;;;12.43;7.27;;;-1.40;99.90;;;;;;4158108;28;20267;-80
2022/03/03 04:24:05;;;;;;;14.60;6.63;;;-1.40;99.90;;;;;;4157396;28;20271;-84
2022/03/03 04:26:06;;;;;;;14.47;7.03;;;-1.30;99.90;;;;;;4174534;28;20266;-76
2022/03/03 04:28:07;;;;;;;14.93;6.90;;;-1.40;99.90;;;;;;4176795;28;20698;-66
2022/03/03 04:30:09;;;;;;;10.93;6.30;;;-1.30;99.90;;;;;;4173811;28;20277;-62
2022/03/03 04:32:11;;;;;;;22.07;9.03;;;-1.30;99.90;;;;;;4174895;28;20753;-64
2022/03/03 04:34:12;;;;;;;16.77;9.03;;;-1.40;99.90;;;;;;4172683;28;20270;-70
2022/03/03 04:36:14;;;;;;;14.90;6.90;;;-1.40;99.90;;;;;;4174876;28;20290;-70
2022/03/03 04:38:15;;;;;;;11.93;6.43;;;-1.40;99.90;;;;;;4175263;28;20673;-77
2022/03/03 04:40:16;;;;;;;16.73;6.47;;;-1.30;99.90;;;;;;4173685;28;20282;-43
2022/03/03 04:42:17;;;;;;;15.47;7.43;;;-1.30;99.90;;;;;;4166096;28;20315;-86
2022/03/03 04:44:18;;;;;;;18.30;6.93;;;-1.30;99.90;;;;;;4170444;28;20328;-94
2022/03/03 04:46:19;;;;;;;15.27;7.00;;;-1.30;99.90;;;;;;4159331;28;20394;-89
2022/03/03 04:48:21;;;;;;;15.73;7.27;;;-1.30;99.90;;;;;;4175334;28;20681;-64
2022/03/03 04:50:23;;;;;;;17.77;8.20;;;-1.30;99.90;;;;;;4176289;28;20324;-49
2022/03/03 04:52:24;;;;;;;18.93;8.17;;;-1.30;99.90;;;;;;4163999;28;20271;-44
2022/03/03 04:54:25;;;;;;;16.40;6.90;;;-1.30;99.90;;;;;;4172556;28;20277;-66
2022/03/03 04:56:26;;;;;;;13.47;6.90;;;-1.30;99.90;;;;;;4173027;28;20290;-75
2022/03/03 04:58:27;;;;;;;14.17;6.77;;;-1.20;99.90;;;;;;4164091;28;20332;-57
2022/03/03 05:00:28;;;;;;;17.10;7.33;;;-1.20;99.90;;;;;;4164360;28;20733;-89
2022/03/03 05:02:32;;;;;;;15.93;7.07;;;-1.20;99.90;;;;;;4168628;28;20329;-67
2022/03/03 05:04:33;;;;;;;15.47;7.33;;;-1.20;99.90;;;;;;4161697;28;20290;-44
2022/03/03 05:06:35;;;;;;;15.13;6.83;;;-1.10;99.90;;;;;;4146762;28;20366;-70
2022/03/03 05:08:36;;;;;;;13.10;6.83;;;-1.10;99.90;;;;;;4177830;28;20327;-58
2022/03/03 05:10:37;;;;;;;16.23;8.07;;;-1.10;99.90;;;;;;4177740;28;20310;-51
2022/03/03 05:12:38;;;;;;;13.93;7.20;;;-1.10;99.90;;;;;;4176577;28;20270;-43
2022/03/03 05:14:40;;;;;;;14.17;6.73;;;-1.10;99.90;;;;;;4175999;28;20305;-67
2022/03/03 05:16:41;;;;;;;18.70;7.20;;;-1.00;99.90;;;;;;4174721;28;20302;-64
2022/03/03 05:18:42;;;;;;;15.17;7.60;;;-1.00;99.90;;;;;;4175851;28;20270;-55
2022/03/03 05:20:44;;;;;;;14.27;7.27;;;-1.00;99.90;;;;;;4168896;28;20286;-48
2022/03/03 05:22:45;;;;;;;17.60;7.10;;;-0.90;99.90;;;;;;4167130;28;20266;-63
2022/03/03 05:24:50;;;;;;;17.03;8.63;;;-0.90;99.90;;;;;;4167010;28;20287;-48
2022/03/03 05:26:51;;;;;;;15.77;6.53;;;-0.90;99.90;;;;;;4167690;28;20297;-60
2022/03/03 05:28:52;;;;;;;13.33;7.37;;;-0.80;99.90;;;;;;4165528;28;20275;-47
2022/03/03 05:30:54;;;;;;;21.07;8.90;;;-0.80;99.90;;;;;;4163848;28;20670;-58
2022/03/03 05:32:55;;;;;;;16.70;7.37;;;-0.70;99.90;;;;;;4165510;28;20259;-56
2022/03/03 05:34:56;;;;;;;15.80;8.37;;;-0.70;99.90;;;;;;4168278;28;20263;-66
2022/03/03 05:36:57;;;;;;;17.93;8.17;;;-0.60;99.90;;;;;;4183044;28;20302;-49
2022/03/03 05:38:59;;;;;;;15.33;7.80;;;-0.50;99.90;;;;;;4182648;28;21026;-61
2022/03/03 05:41:01;;;;;;;15.93;8.10;;;-0.40;99.90;;;;;;4179733;28;20278;-71
2022/03/03 05:43:02;;;;;;;24.47;8.40;;;-0.40;99.90;;;;;;4186291;28;20258;-47
2022/03/03 05:45:05;;;;;;;39.97;17.10;;;-0.30;99.90;;;;;;4183481;28;20300;-54
2022/03/03 05:47:07;;;;;;;45.50;17.77;;;-0.20;99.90;;;;;;4177616;28;20738;-43
2022/03/03 05:49:10;;;;;;;57.00;25.47;;;-0.10;99.90;;;;;;4143341;28;20271;-55
2022/03/03 05:51:11;;;;;;;53.53;25.63;;;0.10;99.90;;;;;;4182381;28;20592;-55
2022/03/03 05:53:13;;;;;;;37.77;19.00;;;0.40;99.90;;;;;;4232984;22;20276;-52
2022/03/03 05:55:14;;;;;;;30.60;15.53;;;0.50;99.90;;;;;;4158232;28;20278;-51
2022/03/03 05:57:25;;;;;;;20.43;10.23;;;0.70;99.90;;;;;;4158355;28;20636;-60
2022/03/03 05:59:29;;;;;;;18.60;9.20;;;0.80;99.90;;;;;;4164851;28;20263;-57
2022/03/03 06:01:31;;;;;;;18.83;8.70;;;0.80;99.90;;;;;;4163495;28;20025;-63
2022/03/03 06:03:34;;;;;;;20.00;9.10;;;0.80;99.90;;;;;;4159083;28;20266;-59
2022/03/03 06:05:39;;;;;;;25.47;9.00;;;0.80;99.90;;;;;;4158787;28;20315;-60
2022/03/03 06:07:44;;;;;;;21.90;8.50;;;0.80;99.90;;;;;;4160146;28;20340;-58
2022/03/03 06:09:48;;;;;;;20.37;9.23;;;0.80;99.90;;;;;;4159646;28;20359;-51
2022/03/03 06:11:56;;;;;;;15.47;8.63;;;0.90;99.90;;;;;;4320581;22;20723;-63
2022/03/03 06:14:08;;;;;;;17.17;8.83;;;0.90;99.90;;;;;;4169955;28;20279;-63
2022/03/03 06:16:10;;;;;;;20.10;8.30;;;0.90;99.90;;;;;;4190723;28;20734;-52
2022/03/03 06:18:12;;;;;;;16.70;8.53;;;0.90;99.90;;;;;;4190683;28;20265;-53
2022/03/03 06:20:14;;;;;;;18.43;8.60;;;0.90;99.90;;;;;;4190249;28;20632;-51
2022/03/03 06:22:15;;;;;;;15.37;8.33;;;0.90;99.90;;;;;;4189750;28;20295;-54
2022/03/03 06:24:17;;;;;;;20.23;8.90;;;0.90;99.90;;;;;;4189746;28;20743;-42
2022/03/03 06:26:19;;;;;;;19.67;8.13;;;0.90;99.90;;;;;;4190593;28;20288;-53
2022/03/03 06:28:20;;;;;;;21.37;8.60;;;0.90;99.90;;;;;;4190179;28;20434;-52
2022/03/03 06:30:21;;;;;;;14.90;7.50;;;0.90;99.90;;;;;;4197281;23;20414;-63
2022/03/03 06:32:23;;;;;;;22.53;8.00;;;0.90;99.90;;;;;;4172521;28;20618;-82
2022/03/03 06:34:24;;;;;;;18.53;7.97;;;0.90;99.90;;;;;;4177632;28;20312;-43
2022/03/03 06:36:25;;;;;;;17.87;8.53;;;0.90;99.90;;;;;;4187448;28;20351;-59
2022/03/03 06:38:26;;;;;;;25.17;10.00;;;1.10;99.90;;;;;;4194718;28;20276;-66
2022/03/03 06:40:29;;;;;;;23.43;8.37;;;1.20;99.90;;;;;;4180557;28;20251;-66
2022/03/03 06:42:30;;;;;;;21.77;9.60;;;1.20;99.90;;;;;;4193542;28;20625;-45
2022/03/03 06:44:31;;;;;;;14.97;7.80;;;1.40;99.90;;;;;;4192733;28;20342;-54
2022/03/03 06:46:33;;;;;;;17.77;8.23;;;1.60;99.90;;;;;;4190112;28;20293;-63
2022/03/03 06:48:34;;;;;;;15.03;8.70;;;1.70;99.90;;;;;;4186095;28;20270;-68
2022/03/03 06:50:38;;;;;;;15.97;7.80;;;1.70;99.90;;;;;;4175501;28;20274;-58
2022/03/03 06:52:39;;;;;;;18.43;8.00;;;2.10;99.90;;;;;;4164679;28;20806;-64
2022/03/03 06:54:44;;;;;;;15.73;8.33;;;2.50;99.90;;;;;;4173831;28;20281;-67
2022/03/03 06:56:50;;;;;;;17.57;9.07;;;3.00;99.90;;;;;;4192667;28;20338;-55
2022/03/03 06:58:53;;;;;;;16.47;8.57;;;3.50;99.90;;;;;;4192265;28;20319;-72
2022/03/03 07:00:54;;;;;;;17.03;8.43;;;4.00;99.90;;;;;;4193619;28;20331;-66
2022/03/03 07:02:56;;;;;;;21.23;8.60;;;4.30;99.90;;;;;;4191853;28;20261;-66
2022/03/03 07:04:58;;;;;;;20.70;10.17;;;4.60;99.90;;;;;;4174632;28;20296;-61
2022/03/03 07:07:00;;;;;;;18.90;9.33;;;4.90;99.90;;;;;;4192416;28;20304;-68
2022/03/03 07:09:03;;;;;;;16.33;8.93;;;5.10;99.90;;;;;;4192457;28;20683;-58
2022/03/03 07:11:05;;;;;;;14.47;7.47;;;5.10;99.90;;;;;;4191851;28;20365;-68
2022/03/03 07:13:06;;;;;;;15.27;8.57;;;4.80;99.90;;;;;;4192969;28;20688;-80
2022/03/03 07:15:08;;;;;;;14.83;8.47;;;4.70;99.90;;;;;;4253091;22;20313;-66
2022/03/03 07:17:39;;;;;;;18.97;7.77;;;4.90;99.90;;;;;;4167819;28;20371;-68
2022/03/03 07:19:58;;;;;;;;;;;5.20;99.90;;;;;;4165029;28;20286;-68
2022/03/03 07:22:19;;;;;;;16.67;6.80;;;5.40;98.50;;;;;;4175137;28;20411;-66
2022/03/03 07:24:57;;;;;;;10.50;6.45;;;5.60;99.00;;;;;;4175904;28;20278;-65
2022/03/03 07:27:04;;;;;;;12.00;6.77;;;5.30;98.30;;;;;;4176352;28;20029;-61
2022/03/03 07:29:11;;;;;;;13.70;7.27;;;5.40;98.40;;;;;;4183063;28;20328;-81
2022/03/03 07:31:17;;;;;;;14.63;8.30;;;5.40;98.70;;;;;;4212879;23;20305;-62
2022/03/03 07:33:46;;;;;;;16.17;7.43;;;5.50;98.70;;;;;;4193133;28;20262;-67
2022/03/03 07:35:49;;;;;;;13.47;6.13;;;5.60;97.10;;;;;;4177898;28;20282;-89
2022/03/03 07:37:59;;;;;;;10.93;5.60;;;5.40;97.50;;;;;;4206545;28;20331;-63
2022/03/03 07:42:15;;;;;;;;;;;4.80;97.50;;;;;;4827081;22;20309;-60
2022/03/03 07:44:16;;;;;;;13.40;5.43;;;4.50;97.20;;;;;;4201935;28;19938;-67
2022/03/03 07:46:17;;;;;;;11.83;5.43;;;4.60;98.60;;;;;;4185785;28;20826;-44
2022/03/03 07:48:22;;;;;;;9.57;5.70;;;4.80;98.60;;;;;;4205137;28;20269;-70
2022/03/03 07:50:25;;;;;;;11.80;6.37;;;5.00;98.10;;;;;;4186833;28;20313;-58
2022/03/03 07:52:28;;;;;;;14.57;6.90;;;5.20;97.30;;;;;;4201676;28;20327;-51
2022/03/03 07:54:30;;;;;;;12.43;6.13;;;5.30;97.50;;;;;;4203396;28;20266;-66
2022/03/03 07:56:39;;;;;;;8.80;5.47;;;5.40;97.40;;;;;;4206382;28;20343;-43
2022/03/03 07:58:45;;;;;;;12.17;6.07;;;5.50;97.40;;;;;;4207696;28;20261;-64
2022/03/03 08:00:53;;;;;;;9.83;5.30;;;6.00;97.00;;;;;;4206575;28;20265;-71
2022/03/03 08:02:58;;;;;;;11.23;6.20;;;6.00;96.20;;;;;;4205173;28;20269;-66
2022/03/03 08:05:06;;;;;;;11.07;5.57;;;6.30;96.00;;;;;;4205862;28;20270;-45
2022/03/03 08:07:09;;;;;;;9.93;6.13;;;6.20;95.20;;;;;;4201522;28;20359;-64
2022/03/03 08:09:12;;;;;;;11.17;6.03;;;6.10;95.60;;;;;;4207662;28;20258;-64
2022/03/03 08:11:16;;;;;;;11.27;5.10;;;5.90;95.50;;;;;;4205835;28;20241;-66
2022/03/03 08:13:18;;;;;;;9.47;4.57;;;6.00;95.60;;;;;;4203373;28;20303;-44
2022/03/03 08:15:19;;;;;;;9.50;4.87;;;6.10;95.70;;;;;;4205488;28;20270;-61
2022/03/03 08:17:23;;;;;;;12.53;5.10;;;6.30;95.10;;;;;;4209662;28;20273;-63
2022/03/03 08:19:24;;;;;;;10.97;5.60;;;6.20;95.00;;;;;;4206608;28;20710;-60
2022/03/03 08:21:26;;;;;;;15.53;5.73;;;6.30;94.80;;;;;;4209648;28;20276;-52
2022/03/03 08:23:29;;;;;;;14.50;4.93;;;6.20;94.80;;;;;;4189261;28;20261;-58
2022/03/03 08:25:30;;;;;;;12.97;5.07;;;6.30;94.80;;;;;;4208694;28;20257;-44
2022/03/03 08:27:32;;;;;;;10.60;4.27;;;6.40;94.70;;;;;;4207271;28;20269;-64
2022/03/03 08:29:34;;;;;;;6.20;4.17;;;6.60;94.30;;;;;;4206929;28;20306;-92
2022/03/03 08:31:38;;;;;;;11.23;4.40;;;6.70;93.90;;;;;;4190352;28;20242;-46
2022/03/03 08:33:52;;;;;;;10.13;4.30;;;6.70;93.50;;;;;;4200704;28;20331;-59
2022/03/03 08:35:59;;;;;;;7.00;3.87;;;6.50;92.70;;;;;;4203502;28;20387;-54
2022/03/03 08:38:05;;;;;;;6.20;3.90;;;6.20;93.40;;;;;;4195258;28;20363;-60
2022/03/03 08:40:09;;;;;;;11.70;4.37;;;6.10;93.50;;;;;;4198028;28;20334;-50
2022/03/03 08:42:13;;;;;;;11.73;4.47;;;6.00;93.30;;;;;;4183820;28;20281;-67
2022/03/03 08:44:18;;;;;;;9.80;4.73;;;5.90;93.40;;;;;;4183909;28;20274;-57
2022/03/03 08:46:23;;;;;;;11.60;4.07;;;6.10;93.70;;;;;;4186478;28;20262;-45
2022/03/03 08:48:30;;;;;;;10.33;4.00;;;6.30;93.60;;;;;;4182743;28;20335;-65
2022/03/03 08:50:33;;;;;;;7.07;3.60;;;6.40;93.50;;;;;;4187162;28;20349;-46
2022/03/03 08:52:38;;;;;;;10.23;4.50;;;6.60;93.00;;;;;;4187146;28;20328;-66
2022/03/03 08:54:39;;;;;;;12.03;4.37;;;6.70;92.60;;;;;;4167885;28;20317;-48
2022/03/03 08:56:41;;;;;;;9.73;4.67;;;6.50;92.40;;;;;;4170994;28;20473;-47
2022/03/03 08:58:42;;;;;;;9.17;3.60;;;6.40;92.90;;;;;;4170885;28;20254;-56
2022/03/03 09:00:45;;;;;;;14.70;4.80;;;6.30;92.60;;;;;;4183077;28;20735;-52
2022/03/03 09:02:47;;;;;;;13.03;4.83;;;6.10;92.60;;;;;;4184175;28;20258;-73
2022/03/03 09:04:49;;;;;;;14.33;4.90;;;5.70;93.00;;;;;;4189540;28;20258;-61
2022/03/03 09:06:50;;;;;;;11.63;4.83;;;5.20;93.70;;;;;;4191310;28;20316;-51
2022/03/03 09:08:51;;;;;;;12.60;4.53;;;5.30;94.30;;;;;;4189153;28;20293;-59
2022/03/03 09:10:52;;;;;;;8.83;4.03;;;5.40;94.10;;;;;;4182146;28;20284;-73
2022/03/03 09:12:53;;;;;;;9.67;4.40;;;5.40;94.00;;;;;;4179955;28;20743;-64
2022/03/03 09:14:54;;;;;;;10.73;4.00;;;5.50;94.20;;;;;;4178553;28;20619;-63
2022/03/03 09:16:56;;;;;;;9.53;4.63;;;5.70;94.00;;;;;;4176569;28;20294;-51
2022/03/03 09:18:58;;;;;;;12.10;4.20;;;6.00;93.80;;;;;;4177063;28;20281;-66
2022/03/03 09:20:59;;;;;;;11.27;4.43;;;6.30;93.90;;;;;;4178444;28;20319;-57
2022/03/03 09:23:01;;;;;;;8.33;3.83;;;6.40;93.00;;;;;;4181664;28;20262;-52
2022/03/03 09:25:03;;;;;;;7.17;3.93;;;6.00;92.80;;;;;;4183733;28;20262;-40
2022/03/03 09:27:04;;;;;;;11.23;5.23;;;6.00;93.30;;;;;;4183548;28;20258;-50
2022/03/03 09:29:06;;;;;;;12.97;4.73;;;5.80;93.70;;;;;;4182789;28;20274;-64
2022/03/03 09:31:07;;;;;;;15.20;6.33;;;6.00;94.00;;;;;;4177120;28;20279;-41
2022/03/03 09:33:08;;;;;;;8.33;4.07;;;6.20;93.70;;;;;;4165199;28;20362;-55
2022/03/03 09:35:10;;;;;;;10.93;4.50;;;6.10;93.00;;;;;;4167352;28;20267;-65
2022/03/03 09:37:13;;;;;;;12.30;5.87;;;5.80;93.50;;;;;;4178749;28;21183;-62
2022/03/03 09:39:15;;;;;;;11.80;5.00;;;5.80;94.20;;;;;;4179129;28;20274;-48
2022/03/03 09:41:17;;;;;;;22.50;6.77;;;6.10;94.00;;;;;;4186767;28;20278;-56
2022/03/03 09:43:18;;;;;;;9.73;5.13;;;6.40;93.70;;;;;;4214887;28;20269;-56
2022/03/03 09:45:19;;;;;;;11.47;4.90;;;6.50;93.30;;;;;;4213942;28;20265;-65
2022/03/03 09:47:21;;;;;;;8.87;4.83;;;6.70;93.20;;;;;;4207345;28;20339;-79
2022/03/03 09:49:22;;;;;;;8.83;4.67;;;6.80;92.60;;;;;;4203931;28;20253;-53
2022/03/03 09:51:23;;;;;;;11.00;5.03;;;6.60;92.70;;;;;;4207200;28;20269;-73
2022/03/03 09:53:25;;;;;;;7.40;4.67;;;6.30;92.90;;;;;;4196993;28;20266;-79
2022/03/03 09:55:26;;;;;;;11.60;5.13;;;6.40;93.10;;;;;;4192667;28;20315;-60
2022/03/03 09:57:28;;;;;;;9.50;5.27;;;6.50;93.20;;;;;;4195547;28;20285;-54
2022/03/03 09:59:29;;;;;;;8.40;4.73;;;6.70;93.10;;;;;;4185449;28;20029;-53
2022/03/03 10:01:32;;;;;;;12.87;5.40;;;6.80;92.90;;;;;;4184539;28;20812;-65
2022/03/03 10:03:35;;;;;;;9.00;4.60;;;6.90;92.80;;;;;;4164569;28;20283;-52
2022/03/03 10:05:42;;;;;;;7.50;4.60;;;7.00;92.40;;;;;;4182545;28;20638;-52
2022/03/03 10:08:02;;;;;;;12.67;4.40;;;7.00;92.50;;;;;;4172709;28;20266;-54
2022/03/03 10:10:13;;;;;;;13.63;5.68;;;7.00;91.90;;;;;;4188307;28;20074;-43
2022/03/03 10:12:15;;;;;;;99.07;46.90;;;6.90;92.10;;;;;;4199309;28;20032;-56
2022/03/03 10:14:27;;;;;;;46.07;22.80;;;7.00;92.30;;;;;;4181803;28;20029;-50
2022/03/03 10:16:30;;;;;;;43.40;22.33;;;7.00;91.90;;;;;;4199909;28;20094;-57
2022/03/03 10:18:31;;;;;;;10.13;5.93;;;7.10;92.00;;;;;;4198124;28;20614;-50
2022/03/03 10:20:51;;;;;;;11.03;5.93;;;6.90;91.80;;;;;;4194850;28;20415;-63
2022/03/03 10:22:58;;;;;;;18.58;6.10;;;6.50;91.90;;;;;;4197096;28;20144;-58
2022/03/03 10:24:59;;;;;;;18.47;7.70;;;6.40;92.60;;;;;;4202880;28;20490;-56
2022/03/03 10:27:03;;;;;;;17.33;8.80;;;6.60;92.80;;;;;;4192145;28;20319;-58
2022/03/03 10:29:19;;;;;;;23.23;12.97;;;6.70;92.70;;;;;;4202274;28;20087;-48
2022/03/03 10:31:22;;;;;;;17.87;9.87;;;6.90;92.20;;;;;;4200077;28;20395;-68
2022/03/03 10:33:28;;;;;;;21.73;11.00;;;7.10;92.10;;;;;;4197431;28;20254;-51
2022/03/03 10:35:30;;;;;;;17.17;8.67;;;7.10;92.00;;;;;;4198190;28;20273;-65
2022/03/03 10:37:32;;;;;;;26.03;10.17;;;7.10;91.70;;;;;;4208608;28;20067;-64
2022/03/03 10:41:46;;;;;;;36.03;18.03;;;6.80;91.90;;;;;;4242209;23;20136;-50